createdAt,value
2022-08-30T00:02:57.149Z,102141.00
2022-08-30T00:08:02.164Z,102150.69
2022-08-30T00:13:06.614Z,102143.47
2022-08-30T00:18:09.984Z,102137.09
2022-08-30T00:23:15.192Z,102139.59
2022-08-30T00:28:18.466Z,102136.69
2022-08-30T00:33:22.469Z,102133.94
2022-08-30T00:38:26.850Z,102125.78
2022-08-30T00:43:34.226Z,102137.19
2022-08-30T00:48:46.077Z,102128.97
2022-08-30T00:53:54.817Z,102129.78
2022-08-30T00:59:00.436Z,102134.09
2022-08-30T01:04:05.171Z,102134.84
2022-08-30T01:09:10.324Z,102142.56
2022-08-30T01:14:15.013Z,102141.53
2022-08-30T01:19:28.608Z,102159.09
2022-08-30T01:24:34.623Z,102145.50
2022-08-30T01:29:38.157Z,102148.16
2022-08-30T01:34:41.351Z,102153.31
2022-08-30T01:39:47.509Z,102147.00
2022-08-30T01:44:50.439Z,102152.19
2022-08-30T01:49:53.723Z,102154.84
2022-08-30T01:54:58.051Z,102144.94
2022-08-30T02:00:01.044Z,102146.69
2022-08-30T02:05:04.872Z,102150.13
2022-08-30T02:10:10.379Z,102151.84
2022-08-30T02:15:13.329Z,102148.25
2022-08-30T02:20:16.308Z,102147.34
2022-08-30T02:25:21.335Z,102141.03
2022-08-30T02:30:24.501Z,102139.47
2022-08-30T02:35:28.330Z,102127.91
2022-08-30T02:40:32.876Z,102121.78
2022-08-30T02:45:35.929Z,102133.31
2022-08-30T02:50:41.154Z,102137.56
2022-08-30T02:55:45.730Z,102137.44
2022-08-30T03:00:48.716Z,102123.00
2022-08-30T03:05:54.038Z,102129.38
2022-08-30T03:10:58.373Z,102121.41
2022-08-30T03:16:01.339Z,102116.00
2022-08-30T03:21:04.594Z,102115.88
2022-08-30T03:26:09.244Z,102114.13
2022-08-30T03:31:12.699Z,102104.22
2022-08-30T03:36:15.703Z,102111.13
2022-08-30T03:41:20.345Z,102103.19
2022-08-30T03:46:26.901Z,102104.13
2022-08-30T03:51:31.789Z,102108.47
2022-08-30T03:56:36.099Z,102114.63
2022-08-30T04:01:39.425Z,102110.22
2022-08-30T04:06:42.409Z,102110.03
2022-08-30T04:11:47.021Z,102105.72
2022-08-30T04:16:50.287Z,102104.66
2022-08-30T04:21:53.233Z,102091.31
2022-08-30T04:26:57.780Z,102107.09
2022-08-30T04:32:01.089Z,102115.84
2022-08-30T04:37:04.320Z,102115.75
2022-08-30T04:42:09.749Z,102100.28
2022-08-30T04:47:12.864Z,102122.75
2022-08-30T04:52:16.037Z,102129.94
2022-08-30T04:57:20.438Z,102131.03
2022-08-30T05:02:24.000Z,102128.22
2022-08-30T05:07:27.235Z,102124.84
2022-08-30T05:12:31.618Z,102136.66
2022-08-30T05:17:34.654Z,102142.38
2022-08-30T05:22:37.905Z,102152.50
2022-08-30T05:27:42.261Z,102163.66
2022-08-30T05:32:45.728Z,102162.09
2022-08-30T05:37:48.783Z,102157.63
2022-08-30T05:42:53.210Z,102173.63
2022-08-30T05:47:56.502Z,102162.78
2022-08-30T05:52:59.461Z,102174.31
2022-08-30T05:58:03.726Z,102169.06
2022-08-30T06:03:06.817Z,102166.59
2022-08-30T06:08:09.919Z,102174.53
2022-08-30T06:13:15.958Z,102172.09
2022-08-30T06:18:28.296Z,102175.59
2022-08-30T06:23:32.086Z,102175.81
2022-08-30T06:28:36.624Z,102162.66
2022-08-30T06:33:39.960Z,102168.09
2022-08-30T06:38:43.560Z,102167.50
2022-08-30T06:43:49.214Z,102165.97
2022-08-30T06:48:52.703Z,102161.78
2022-08-30T06:54:00.270Z,102153.00
2022-08-30T06:59:05.101Z,102154.28
2022-08-30T07:04:08.063Z,102161.63
2022-08-30T07:09:11.110Z,102152.91
2022-08-30T07:14:15.818Z,102165.69
2022-08-30T07:19:21.005Z,102165.06
2022-08-30T07:24:24.989Z,102164.56
2022-08-30T07:29:29.304Z,102179.22
2022-08-30T07:34:32.884Z,102181.38
2022-08-30T07:39:41.745Z,102178.19
2022-08-30T07:44:52.690Z,102178.53
2022-08-30T07:50:01.070Z,102180.72
2022-08-30T07:55:05.897Z,102183.19
2022-08-30T08:00:11.841Z,102187.44
2022-08-30T08:05:17.747Z,102190.94
2022-08-30T08:10:21.515Z,102185.59
2022-08-30T08:15:26.738Z,102185.28
2022-08-30T08:20:30.111Z,102182.22
2022-08-30T08:25:33.202Z,102189.25
2022-08-30T08:30:38.751Z,102179.06
2022-08-30T08:35:42.175Z,102179.63
2022-08-30T08:40:54.853Z,102177.34
2022-08-30T08:46:05.382Z,102171.41
2022-08-30T08:51:29.285Z,102168.06
2022-08-30T08:56:36.429Z,102179.00
2022-08-30T09:01:40.816Z,102172.03
2022-08-30T09:06:52.269Z,102161.53
2022-08-30T09:11:55.324Z,102164.31
2022-08-30T09:17:04.291Z,102167.97
2022-08-30T09:22:26.632Z,102179.72
2022-08-30T09:27:33.499Z,102174.41
2022-08-30T09:32:41.390Z,102184.22
2022-08-30T09:37:50.160Z,102175.22
2022-08-30T09:43:08.462Z,102169.81
2022-08-30T09:48:33.902Z,102176.03
2022-08-30T09:54:01.219Z,102174.31
2022-08-30T09:59:14.395Z,102181.50
2022-08-30T10:04:31.810Z,102182.25
2022-08-30T10:09:43.895Z,102179.25
2022-08-30T10:14:57.886Z,102171.16
2022-08-30T10:20:14.656Z,102173.84
2022-08-30T10:25:22.216Z,102172.88
2022-08-30T10:30:25.272Z,102177.25
2022-08-30T10:35:38.721Z,102171.94
2022-08-30T10:41:06.450Z,102181.69
2022-08-30T10:46:15.928Z,102171.47
2022-08-30T10:51:26.448Z,102167.78
2022-08-30T10:56:31.055Z,102162.38
2022-08-30T11:01:54.735Z,102162.75
2022-08-30T11:07:10.110Z,102156.25
2022-08-30T11:12:26.348Z,102148.06
2022-08-30T11:17:33.924Z,102150.94
2022-08-30T11:22:39.467Z,102161.78
2022-08-30T11:27:48.933Z,102149.97
2022-08-30T11:33:07.937Z,102147.09
2022-08-30T11:38:41.183Z,102137.75
2022-08-30T11:43:56.154Z,102149.97
2022-08-30T11:49:07.319Z,102142.00
2022-08-30T11:54:29.669Z,102131.72
2022-08-30T11:59:44.235Z,102129.22
2022-08-30T12:04:49.158Z,102122.84
2022-08-30T12:10:05.847Z,102125.66
2022-08-30T12:15:26.982Z,102124.53
2022-08-30T12:20:39.212Z,102126.19
2022-08-30T12:25:43.690Z,102122.63
2022-08-30T12:30:46.952Z,102114.47
2022-08-30T12:35:50.287Z,102116.28
2022-08-30T12:40:57.974Z,102119.19
2022-08-30T12:46:07.213Z,102111.88
2022-08-30T12:51:26.916Z,102110.69
2022-08-30T12:56:53.894Z,102114.25
2022-08-30T13:02:08.858Z,102116.81
2022-08-30T13:07:33.130Z,102102.34
2022-08-30T13:12:38.550Z,102097.72
2022-08-30T13:17:41.756Z,102096.59
2022-08-30T13:23:03.213Z,102082.97
2022-08-30T13:28:09.176Z,102085.09
2022-08-30T13:33:16.726Z,102086.78
2022-08-30T13:38:19.936Z,102070.16
2022-08-30T13:43:24.285Z,102066.09
2022-08-30T13:48:28.176Z,102061.47
2022-08-30T13:58:56.132Z,102059.53
2022-08-30T14:04:15.946Z,102063.47
2022-08-30T14:09:19.414Z,102053.53
2022-08-30T14:14:41.487Z,102049.47
2022-08-30T14:19:46.588Z,102044.34
2022-08-30T14:24:54.192Z,102045.94
2022-08-30T14:29:59.982Z,102056.81
2022-08-30T14:35:03.072Z,102047.75
2022-08-30T14:40:07.876Z,102061.53
2022-08-30T14:45:13.268Z,102056.56
2022-08-30T14:50:16.727Z,102054.66
2022-08-30T14:55:20.051Z,102049.38
2022-08-30T15:00:25.621Z,102048.25
2022-08-30T15:05:28.828Z,102045.16
2022-08-30T15:10:31.892Z,102028.72
2022-08-30T15:15:36.908Z,102030.34
2022-08-30T15:20:46.603Z,102024.13
2022-08-30T15:25:49.687Z,102023.28
2022-08-30T15:30:55.736Z,102032.25
2022-08-30T15:36:02.086Z,102025.22
2022-08-30T15:41:09.809Z,102014.38
2022-08-30T15:46:22.604Z,102012.31
2022-08-30T15:51:26.945Z,102014.34
2022-08-30T15:56:31.489Z,102022.72
2022-08-30T16:01:36.389Z,102016.66
2022-08-30T16:06:39.953Z,102013.16
2022-08-30T16:11:45.341Z,102012.38
2022-08-30T16:16:49.841Z,102007.94
2022-08-30T16:21:52.901Z,102015.25
2022-08-30T16:26:56.365Z,102005.47
2022-08-30T16:32:01.014Z,102013.56
2022-08-30T16:37:04.068Z,102008.16
2022-08-30T16:42:07.758Z,102000.16
2022-08-30T16:47:13.540Z,101990.38
2022-08-30T16:52:17.637Z,101999.31
2022-08-30T16:57:21.263Z,101994.88
2022-08-30T17:02:26.889Z,101997.63
2022-08-30T17:07:33.255Z,101996.75
2022-08-30T17:12:36.615Z,102002.16
2022-08-30T17:17:43.311Z,102004.84
2022-08-30T17:22:46.465Z,102000.47
2022-08-30T17:27:49.857Z,102010.44
2022-08-30T17:32:54.670Z,102010.59
2022-08-30T17:37:59.232Z,102016.00
2022-08-30T17:43:02.436Z,102016.03
2022-08-30T17:48:08.008Z,102029.50
2022-08-30T17:53:10.951Z,102034.00
2022-08-30T17:58:13.944Z,102040.22
2022-08-30T18:03:18.663Z,102049.97
2022-08-30T18:08:21.760Z,102057.06
2022-08-30T18:13:24.781Z,102054.28
2022-08-30T18:18:29.165Z,102050.59
2022-08-30T18:23:32.255Z,102059.41
2022-08-30T18:28:35.632Z,102062.84
2022-08-30T18:33:39.970Z,102070.72
2022-08-30T18:38:45.181Z,102083.94
2022-08-30T18:43:48.818Z,102083.84
2022-08-30T18:48:56.282Z,102078.28
2022-08-30T18:54:00.419Z,102090.66
2022-08-30T18:59:06.011Z,102085.16
2022-08-30T19:09:38.290Z,102088.34
2022-08-30T19:14:41.619Z,102096.25
2022-08-30T19:19:49.088Z,102100.53
2022-08-30T19:24:53.772Z,102105.66
2022-08-30T19:29:57.840Z,102103.63
2022-08-30T19:35:03.752Z,102106.22
2022-08-30T19:40:10.415Z,102117.69
2022-08-30T19:45:18.129Z,102114.81
2022-08-30T19:50:23.876Z,102119.06
2022-08-30T19:55:31.413Z,102118.03
2022-08-30T20:00:36.058Z,102117.88
2022-08-30T20:05:43.670Z,102128.34
2022-08-30T20:10:47.315Z,102125.63
2022-08-30T20:15:55.818Z,102134.31
2022-08-30T20:21:00.729Z,102128.84
2022-08-30T20:24:30.255Z,102096.47
2022-08-30T20:26:05.850Z,102124.31
2022-08-30T20:31:10.666Z,102121.28
2022-08-30T20:36:15.480Z,102145.38
2022-08-30T20:41:20.192Z,102139.88
2022-08-30T20:46:23.356Z,102136.22
2022-08-30T20:51:28.724Z,102138.75
2022-08-30T20:56:31.911Z,102134.06
2022-08-30T21:01:38.451Z,102138.31
2022-08-30T21:06:43.585Z,102137.25
2022-08-30T21:11:47.648Z,102143.28
2022-08-30T21:16:51.292Z,102133.38
2022-08-30T21:21:55.647Z,102150.09
2022-08-30T21:27:00.192Z,102146.44
2022-08-30T21:32:03.747Z,102158.84
2022-08-30T21:37:08.185Z,102151.69
2022-08-30T21:42:11.893Z,102157.81
2022-08-30T21:47:14.982Z,102161.31
2022-08-30T21:52:28.169Z,102163.91
2022-08-30T21:57:31.462Z,102167.31
2022-08-30T22:02:35.513Z,102184.88
2022-08-30T22:07:39.987Z,102172.41
2022-08-30T22:12:42.940Z,102180.22
2022-08-30T22:17:46.330Z,102173.09
2022-08-30T22:22:50.785Z,102170.38
2022-08-30T22:27:53.851Z,102174.69
2022-08-30T22:32:57.294Z,102176.34
2022-08-30T22:38:02.032Z,102172.84
2022-08-30T22:43:05.246Z,102181.66
2022-08-30T22:48:08.968Z,102175.34
2022-08-30T22:53:13.320Z,102178.91
2022-08-30T22:58:19.070Z,102168.19
2022-08-30T23:03:22.207Z,102176.19
2022-08-30T23:08:26.529Z,102177.94
2022-08-30T23:13:29.533Z,102169.81
2022-08-30T23:18:32.920Z,102180.47
2022-08-30T23:23:55.280Z,102184.72
2022-08-30T23:29:15.756Z,102186.50
2022-08-30T23:34:36.634Z,102189.84
2022-08-30T23:39:58.347Z,102186.19
2022-08-30T23:45:18.991Z,102186.91
2022-08-30T23:50:39.108Z,102184.16
2022-08-30T23:56:01.264Z,102183.06
